sensor_id;sensor_type;location;lat;lon;timestamp;temperature;humidity
75130;HTU21D;63703;44.716;37.846;2022-12-07T00:01:08;5.51;75.83
75130;HTU21D;63703;44.716;37.846;2022-12-07T00:03:36;5.50;76.04
75130;HTU21D;63703;44.716;37.846;2022-12-07T00:06:04;5.48;75.92
75130;HTU21D;63703;44.716;37.846;2022-12-07T00:08:31;5.42;75.96
75130;HTU21D;63703;44.716;37.846;2022-12-07T00:11:04;5.39;76.07
75130;HTU21D;63703;44.716;37.846;2022-12-07T00:13:31;5.35;75.95
75130;HTU21D;63703;44.716;37.846;2022-12-07T00:16:09;5.32;76.13
75130;HTU21D;63703;44.716;37.846;2022-12-07T00:18:37;5.27;76.26
75130;HTU21D;63703;44.716;37.846;2022-12-07T00:21:09;5.27;76.50
75130;HTU21D;63703;44.716;37.846;2022-12-07T00:23:35;5.23;76.36
75130;HTU21D;63703;44.716;37.846;2022-12-07T00:26:22;5.24;76.71
75130;HTU21D;63703;44.716;37.846;2022-12-07T00:29:15;5.20;76.63
75130;HTU21D;63703;44.716;37.846;2022-12-07T00:31:42;5.15;76.40
75130;HTU21D;63703;44.716;37.846;2022-12-07T00:34:16;5.12;76.58
75130;HTU21D;63703;44.716;37.846;2022-12-07T00:36:42;5.09;76.54
75130;HTU21D;63703;44.716;37.846;2022-12-07T00:39:08;5.13;76.75
75130;HTU21D;63703;44.716;37.846;2022-12-07T00:41:34;5.19;76.82
75130;HTU21D;63703;44.716;37.846;2022-12-07T00:44:00;5.24;77.31
75130;HTU21D;63703;44.716;37.846;2022-12-07T00:46:26;5.27;77.98
75130;HTU21D;63703;44.716;37.846;2022-12-07T00:48:53;5.22;77.60
75130;HTU21D;63703;44.716;37.846;2022-12-07T00:51:21;5.18;77.60
75130;HTU21D;63703;44.716;37.846;2022-12-07T00:53:47;5.15;77.80
75130;HTU21D;63703;44.716;37.846;2022-12-07T00:56:25;5.15;78.02
75130;HTU21D;63703;44.716;37.846;2022-12-07T00:59:02;5.11;77.89
75130;HTU21D;63703;44.716;37.846;2022-12-07T01:01:31;5.07;77.77
75130;HTU21D;63703;44.716;37.846;2022-12-07T01:03:58;5.01;77.70
75130;HTU21D;63703;44.716;37.846;2022-12-07T01:06:27;4.94;77.69
75130;HTU21D;63703;44.716;37.846;2022-12-07T01:08:54;4.91;78.05
75130;HTU21D;63703;44.716;37.846;2022-12-07T01:11:22;4.91;78.40
75130;HTU21D;63703;44.716;37.846;2022-12-07T01:13:50;4.92;78.32
75130;HTU21D;63703;44.716;37.846;2022-12-07T01:16:17;4.91;78.47
75130;HTU21D;63703;44.716;37.846;2022-12-07T01:18:47;4.89;78.58
75130;HTU21D;63703;44.716;37.846;2022-12-07T01:21:17;4.81;78.49
75130;HTU21D;63703;44.716;37.846;2022-12-07T01:23:44;4.79;78.65
75130;HTU21D;63703;44.716;37.846;2022-12-07T01:26:13;4.77;78.66
75130;HTU21D;63703;44.716;37.846;2022-12-07T01:28:39;4.74;78.63
75130;HTU21D;63703;44.716;37.846;2022-12-07T01:31:08;4.68;78.64
75130;HTU21D;63703;44.716;37.846;2022-12-07T01:33:36;4.65;78.62
75130;HTU21D;63703;44.716;37.846;2022-12-07T01:36:14;4.62;78.79
75130;HTU21D;63703;44.716;37.846;2022-12-07T01:38:40;4.68;79.20
75130;HTU21D;63703;44.716;37.846;2022-12-07T01:41:06;4.77;79.32
75130;HTU21D;63703;44.716;37.846;2022-12-07T01:43:33;4.76;79.33
75130;HTU21D;63703;44.716;37.846;2022-12-07T01:46:00;4.69;79.27
75130;HTU21D;63703;44.716;37.846;2022-12-07T01:48:30;4.63;79.24
75130;HTU21D;63703;44.716;37.846;2022-12-07T01:51:03;4.56;79.21
75130;HTU21D;63703;44.716;37.846;2022-12-07T01:53:30;4.51;79.14
75130;HTU21D;63703;44.716;37.846;2022-12-07T01:55:58;4.49;79.27
75130;HTU21D;63703;44.716;37.846;2022-12-07T01:58:25;4.49;79.23
75130;HTU21D;63703;44.716;37.846;2022-12-07T02:00:51;4.50;79.21
75130;HTU21D;63703;44.716;37.846;2022-12-07T02:03:30;4.49;79.39
75130;HTU21D;63703;44.716;37.846;2022-12-07T02:05:58;4.43;79.20
75130;HTU21D;63703;44.716;37.846;2022-12-07T02:08:25;4.44;79.25
75130;HTU21D;63703;44.716;37.846;2022-12-07T02:10:52;4.44;79.30
75130;HTU21D;63703;44.716;37.846;2022-12-07T02:13:26;4.47;79.33
75130;HTU21D;63703;44.716;37.846;2022-12-07T02:16:14;4.56;79.70
75130;HTU21D;63703;44.716;37.846;2022-12-07T02:21:39;4.66;79.22
75130;HTU21D;63703;44.716;37.846;2022-12-07T02:29:55;4.71;79.71
75130;HTU21D;63703;44.716;37.846;2022-12-07T02:35:07;4.66;79.62
75130;HTU21D;63703;44.716;37.846;2022-12-07T02:40:33;4.73;79.46
75130;HTU21D;63703;44.716;37.846;2022-12-07T02:43:19;4.73;79.41
75130;HTU21D;63703;44.716;37.846;2022-12-07T02:45:47;4.77;79.44
75130;HTU21D;63703;44.716;37.846;2022-12-07T02:48:16;4.86;79.86
75130;HTU21D;63703;44.716;37.846;2022-12-07T02:50:49;4.98;80.28
75130;HTU21D;63703;44.716;37.846;2022-12-07T02:56:45;5.27;80.69
75130;HTU21D;63703;44.716;37.846;2022-12-07T03:10:24;5.77;80.36
75130;HTU21D;63703;44.716;37.846;2022-12-07T03:13:23;5.89;80.30
75130;HTU21D;63703;44.716;37.846;2022-12-07T03:15:53;6.02;80.11
75130;HTU21D;63703;44.716;37.846;2022-12-07T03:18:24;6.11;80.03
75130;HTU21D;63703;44.716;37.846;2022-12-07T03:20:53;6.20;80.04
75130;HTU21D;63703;44.716;37.846;2022-12-07T03:23:22;6.33;79.91
75130;HTU21D;63703;44.716;37.846;2022-12-07T03:25:52;6.45;79.92
75130;HTU21D;63703;44.716;37.846;2022-12-07T03:28:22;6.54;79.90
75130;HTU21D;63703;44.716;37.846;2022-12-07T03:31:16;6.64;79.90
75130;HTU21D;63703;44.716;37.846;2022-12-07T03:33:59;6.67;79.86
75130;HTU21D;63703;44.716;37.846;2022-12-07T03:36:32;6.75;79.82
75130;HTU21D;63703;44.716;37.846;2022-12-07T03:39:23;6.88;80.12
75130;HTU21D;63703;44.716;37.846;2022-12-07T03:41:52;6.94;79.69
75130;HTU21D;63703;44.716;37.846;2022-12-07T03:44:19;7.03;79.63
75130;HTU21D;63703;44.716;37.846;2022-12-07T03:47:05;7.00;79.97
75130;HTU21D;63703;44.716;37.846;2022-12-07T03:50:09;6.90;80.46
75130;HTU21D;63703;44.716;37.846;2022-12-07T03:52:59;6.72;79.98
75130;HTU21D;63703;44.716;37.846;2022-12-07T03:55:32;6.56;80.21
75130;HTU21D;63703;44.716;37.846;2022-12-07T03:58:03;6.50;80.20
75130;HTU21D;63703;44.716;37.846;2022-12-07T04:00:29;6.50;80.27
75130;HTU21D;63703;44.716;37.846;2022-12-07T04:02:55;6.56;80.15
75130;HTU21D;63703;44.716;37.846;2022-12-07T04:05:22;6.65;80.06
75130;HTU21D;63703;44.716;37.846;2022-12-07T04:07:48;6.73;79.92
75130;HTU21D;63703;44.716;37.846;2022-12-07T04:10:14;6.83;79.75
75130;HTU21D;63703;44.716;37.846;2022-12-07T04:12:40;6.88;79.78
75130;HTU21D;63703;44.716;37.846;2022-12-07T04:15:06;6.85;79.94
75130;HTU21D;63703;44.716;37.846;2022-12-07T04:17:33;6.70;80.07
75130;HTU21D;63703;44.716;37.846;2022-12-07T04:19:59;6.57;80.09
75130;HTU21D;63703;44.716;37.846;2022-12-07T04:22:24;6.53;80.17
75130;HTU21D;63703;44.716;37.846;2022-12-07T04:24:50;6.58;80.11
75130;HTU21D;63703;44.716;37.846;2022-12-07T04:27:16;6.58;79.95
75130;HTU21D;63703;44.716;37.846;2022-12-07T04:29:42;6.54;79.95
75130;HTU21D;63703;44.716;37.846;2022-12-07T04:32:08;6.51;80.04
75130;HTU21D;63703;44.716;37.846;2022-12-07T04:34:34;6.51;80.02
75130;HTU21D;63703;44.716;37.846;2022-12-07T04:37:00;6.45;80.01
75130;HTU21D;63703;44.716;37.846;2022-12-07T04:39:29;6.39;80.02
75130;HTU21D;63703;44.716;37.846;2022-12-07T04:41:56;6.31;80.05
75130;HTU21D;63703;44.716;37.846;2022-12-07T04:44:23;6.34;80.17
75130;HTU21D;63703;44.716;37.846;2022-12-07T04:46:50;6.33;80.67
75130;HTU21D;63703;44.716;37.846;2022-12-07T04:49:17;6.27;80.62
75130;HTU21D;63703;44.716;37.846;2022-12-07T04:51:44;6.22;80.59
75130;HTU21D;63703;44.716;37.846;2022-12-07T04:54:10;6.20;80.57
75130;HTU21D;63703;44.716;37.846;2022-12-07T04:56:36;6.20;80.56
75130;HTU21D;63703;44.716;37.846;2022-12-07T04:59:03;6.23;80.75
75130;HTU21D;63703;44.716;37.846;2022-12-07T05:01:30;6.28;80.81
75130;HTU21D;63703;44.716;37.846;2022-12-07T05:03:56;6.29;80.74
75130;HTU21D;63703;44.716;37.846;2022-12-07T05:06:22;6.29;80.71
75130;HTU21D;63703;44.716;37.846;2022-12-07T05:08:48;6.29;80.67
75130;HTU21D;63703;44.716;37.846;2022-12-07T05:11:14;6.35;80.72
75130;HTU21D;63703;44.716;37.846;2022-12-07T05:14:15;6.43;80.72
75130;HTU21D;63703;44.716;37.846;2022-12-07T05:16:42;6.46;80.60
75130;HTU21D;63703;44.716;37.846;2022-12-07T05:19:09;6.50;80.59
75130;HTU21D;63703;44.716;37.846;2022-12-07T05:21:36;6.56;80.59
75130;HTU21D;63703;44.716;37.846;2022-12-07T05:24:02;6.69;80.44
75130;HTU21D;63703;44.716;37.846;2022-12-07T05:26:29;6.83;80.36
75130;HTU21D;63703;44.716;37.846;2022-12-07T05:28:56;6.94;80.17
75130;HTU21D;63703;44.716;37.846;2022-12-07T05:31:23;7.05;80.08
75130;HTU21D;63703;44.716;37.846;2022-12-07T05:33:49;7.16;80.20
75130;HTU21D;63703;44.716;37.846;2022-12-07T05:36:15;7.22;80.18
75130;HTU21D;63703;44.716;37.846;2022-12-07T05:38:41;7.27;80.21
75130;HTU21D;63703;44.716;37.846;2022-12-07T05:41:08;7.33;80.26
75130;HTU21D;63703;44.716;37.846;2022-12-07T05:43:57;7.38;80.27
75130;HTU21D;63703;44.716;37.846;2022-12-07T05:46:23;7.42;80.18
75130;HTU21D;63703;44.716;37.846;2022-12-07T05:48:49;7.49;80.14
75130;HTU21D;63703;44.716;37.846;2022-12-07T05:51:15;7.56;80.04
75130;HTU21D;63703;44.716;37.846;2022-12-07T05:53:40;7.65;79.98
75130;HTU21D;63703;44.716;37.846;2022-12-07T05:56:07;7.75;79.85
75130;HTU21D;63703;44.716;37.846;2022-12-07T05:58:32;7.83;79.78
75130;HTU21D;63703;44.716;37.846;2022-12-07T06:01:17;7.88;79.78
75130;HTU21D;63703;44.716;37.846;2022-12-07T06:03:43;7.94;79.80
75130;HTU21D;63703;44.716;37.846;2022-12-07T06:06:09;8.02;79.79
75130;HTU21D;63703;44.716;37.846;2022-12-07T06:08:35;8.07;79.89
75130;HTU21D;63703;44.716;37.846;2022-12-07T06:11:01;8.07;80.20
75130;HTU21D;63703;44.716;37.846;2022-12-07T06:13:45;8.08;80.19
75130;HTU21D;63703;44.716;37.846;2022-12-07T06:16:11;8.15;80.15
75130;HTU21D;63703;44.716;37.846;2022-12-07T06:18:37;8.20;80.12
75130;HTU21D;63703;44.716;37.846;2022-12-07T06:21:03;8.27;80.07
75130;HTU21D;63703;44.716;37.846;2022-12-07T06:23:29;8.35;79.98
75130;HTU21D;63703;44.716;37.846;2022-12-07T06:25:55;8.45;79.89
75130;HTU21D;63703;44.716;37.846;2022-12-07T06:28:20;8.56;79.79
75130;HTU21D;63703;44.716;37.846;2022-12-07T06:30:47;8.65;79.71
75130;HTU21D;63703;44.716;37.846;2022-12-07T06:33:12;8.79;79.65
75130;HTU21D;63703;44.716;37.846;2022-12-07T06:35:38;8.98;79.53
75130;HTU21D;63703;44.716;37.846;2022-12-07T06:38:04;9.20;79.32
75130;HTU21D;63703;44.716;37.846;2022-12-07T06:40:30;9.42;79.11
75130;HTU21D;63703;44.716;37.846;2022-12-07T06:42:56;9.66;78.95
75130;HTU21D;63703;44.716;37.846;2022-12-07T06:45:22;9.88;78.76
75130;HTU21D;63703;44.716;37.846;2022-12-07T06:47:48;10.09;78.59
75130;HTU21D;63703;44.716;37.846;2022-12-07T06:50:14;10.33;78.34
75130;HTU21D;63703;44.716;37.846;2022-12-07T06:52:40;10.52;78.13
75130;HTU21D;63703;44.716;37.846;2022-12-07T06:55:06;10.72;77.94
75130;HTU21D;63703;44.716;37.846;2022-12-07T06:57:32;10.92;77.76
75130;HTU21D;63703;44.716;37.846;2022-12-07T06:59:58;11.08;77.56
75130;HTU21D;63703;44.716;37.846;2022-12-07T07:02:24;11.16;77.43
75130;HTU21D;63703;44.716;37.846;2022-12-07T07:04:49;11.19;77.40
75130;HTU21D;63703;44.716;37.846;2022-12-07T07:07:15;11.22;77.45
75130;HTU21D;63703;44.716;37.846;2022-12-07T07:09:41;11.22;77.39
75130;HTU21D;63703;44.716;37.846;2022-12-07T07:12:07;11.17;77.37
75130;HTU21D;63703;44.716;37.846;2022-12-07T07:14:33;11.14;77.35
75130;HTU21D;63703;44.716;37.846;2022-12-07T07:16:59;11.12;77.33
75130;HTU21D;63703;44.716;37.846;2022-12-07T07:19:25;11.10;76.98
75130;HTU21D;63703;44.716;37.846;2022-12-07T07:21:51;11.09;77.00
75130;HTU21D;63703;44.716;37.846;2022-12-07T07:24:17;11.10;76.95
75130;HTU21D;63703;44.716;37.846;2022-12-07T07:26:42;11.08;76.90
75130;HTU21D;63703;44.716;37.846;2022-12-07T07:29:08;11.05;76.95
75130;HTU21D;63703;44.716;37.846;2022-12-07T07:31:34;11.02;77.02
75130;HTU21D;63703;44.716;37.846;2022-12-07T07:34:01;11.02;77.02
75130;HTU21D;63703;44.716;37.846;2022-12-07T07:36:27;11.02;77.01
75130;HTU21D;63703;44.716;37.846;2022-12-07T07:38:52;11.03;76.98
75130;HTU21D;63703;44.716;37.846;2022-12-07T07:41:19;11.04;76.98
75130;HTU21D;63703;44.716;37.846;2022-12-07T07:43:45;11.07;77.01
75130;HTU21D;63703;44.716;37.846;2022-12-07T07:46:11;11.05;77.04
75130;HTU21D;63703;44.716;37.846;2022-12-07T07:48:37;11.07;77.05
75130;HTU21D;63703;44.716;37.846;2022-12-07T07:51:07;11.11;77.05
75130;HTU21D;63703;44.716;37.846;2022-12-07T07:53:33;11.14;77.00
75130;HTU21D;63703;44.716;37.846;2022-12-07T07:55:59;11.16;77.03
75130;HTU21D;63703;44.716;37.846;2022-12-07T07:58:24;11.16;77.04
75130;HTU21D;63703;44.716;37.846;2022-12-07T08:00:51;11.16;77.02
75130;HTU21D;63703;44.716;37.846;2022-12-07T08:03:17;11.19;76.98
75130;HTU21D;63703;44.716;37.846;2022-12-07T08:05:43;11.27;76.88
75130;HTU21D;63703;44.716;37.846;2022-12-07T08:08:09;11.36;76.76
75130;HTU21D;63703;44.716;37.846;2022-12-07T08:10:34;11.48;76.60
75130;HTU21D;63703;44.716;37.846;2022-12-07T08:13:01;11.63;76.42
75130;HTU21D;63703;44.716;37.846;2022-12-07T08:15:41;11.75;76.30
75130;HTU21D;63703;44.716;37.846;2022-12-07T08:18:08;11.89;76.18
75130;HTU21D;63703;44.716;37.846;2022-12-07T08:20:35;12.00;76.14
75130;HTU21D;63703;44.716;37.846;2022-12-07T08:23:01;12.11;76.15
75130;HTU21D;63703;44.716;37.846;2022-12-07T08:25:28;12.21;76.18
75130;HTU21D;63703;44.716;37.846;2022-12-07T08:27:54;12.35;76.14
75130;HTU21D;63703;44.716;37.846;2022-12-07T08:30:20;12.47;75.93
75130;HTU21D;63703;44.716;37.846;2022-12-07T08:32:48;12.60;75.66
75130;HTU21D;63703;44.716;37.846;2022-12-07T08:35:14;12.73;75.45
75130;HTU21D;63703;44.716;37.846;2022-12-07T08:37:40;12.88;75.09
75130;HTU21D;63703;44.716;37.846;2022-12-07T08:40:08;13.01;74.77
75130;HTU21D;63703;44.716;37.846;2022-12-07T08:42:34;13.05;74.52
75130;HTU21D;63703;44.716;37.846;2022-12-07T08:45:07;13.00;74.52
75130;HTU21D;63703;44.716;37.846;2022-12-07T08:47:41;13.02;74.34
75130;HTU21D;63703;44.716;37.846;2022-12-07T08:50:09;13.03;74.25
75130;HTU21D;63703;44.716;37.846;2022-12-07T08:52:36;13.12;74.11
75130;HTU21D;63703;44.716;37.846;2022-12-07T08:55:03;13.23;73.87
75130;HTU21D;63703;44.716;37.846;2022-12-07T08:57:32;13.34;73.63
75130;HTU21D;63703;44.716;37.846;2022-12-07T08:59:58;13.40;73.53
75130;HTU21D;63703;44.716;37.846;2022-12-07T09:02:24;13.50;73.38
75130;HTU21D;63703;44.716;37.846;2022-12-07T09:04:50;13.79;73.40
75130;HTU21D;63703;44.716;37.846;2022-12-07T09:07:16;14.45;73.06
75130;HTU21D;63703;44.716;37.846;2022-12-07T09:09:42;15.24;72.29
75130;HTU21D;63703;44.716;37.846;2022-12-07T09:12:08;16.13;70.55
75130;HTU21D;63703;44.716;37.846;2022-12-07T09:14:35;16.59;69.44
75130;HTU21D;63703;44.716;37.846;2022-12-07T09:17:11;16.24;66.85
75130;HTU21D;63703;44.716;37.846;2022-12-07T09:19:38;15.68;66.40
75130;HTU21D;63703;44.716;37.846;2022-12-07T09:22:04;15.17;66.16
75130;HTU21D;63703;44.716;37.846;2022-12-07T09:24:31;14.72;66.06
75130;HTU21D;63703;44.716;37.846;2022-12-07T09:26:57;14.35;66.50
75130;HTU21D;63703;44.716;37.846;2022-12-07T09:29:24;14.17;66.78
75130;HTU21D;63703;44.716;37.846;2022-12-07T09:31:51;14.04;67.23
75130;HTU21D;63703;44.716;37.846;2022-12-07T09:34:17;14.07;67.53
75130;HTU21D;63703;44.716;37.846;2022-12-07T09:36:43;14.10;67.85
75130;HTU21D;63703;44.716;37.846;2022-12-07T09:39:09;14.19;67.78
75130;HTU21D;63703;44.716;37.846;2022-12-07T09:41:41;14.25;67.55
75130;HTU21D;63703;44.716;37.846;2022-12-07T09:44:27;14.39;66.97
75130;HTU21D;63703;44.716;37.846;2022-12-07T09:46:54;14.95;66.92
75130;HTU21D;63703;44.716;37.846;2022-12-07T09:49:23;15.55;65.43
75130;HTU21D;63703;44.716;37.846;2022-12-07T09:52:18;15.74;63.96
75130;HTU21D;63703;44.716;37.846;2022-12-07T09:54:48;15.68;64.37
75130;HTU21D;63703;44.716;37.846;2022-12-07T09:57:15;15.56;64.26
75130;HTU21D;63703;44.716;37.846;2022-12-07T09:59:41;15.55;64.73
75130;HTU21D;63703;44.716;37.846;2022-12-07T10:05:04;16.54;62.73
75130;HTU21D;63703;44.716;37.846;2022-12-07T10:07:30;17.26;61.41
75130;HTU21D;63703;44.716;37.846;2022-12-07T10:09:57;18.07;59.77
75130;HTU21D;63703;44.716;37.846;2022-12-07T10:12:22;18.77;57.55
75130;HTU21D;63703;44.716;37.846;2022-12-07T10:14:59;19.72;54.51
75130;HTU21D;63703;44.716;37.846;2022-12-07T10:22:38;21.42;50.56
75130;HTU21D;63703;44.716;37.846;2022-12-07T10:25:34;21.24;48.85
75130;HTU21D;63703;44.716;37.846;2022-12-07T10:28:10;20.79;51.57
75130;HTU21D;63703;44.716;37.846;2022-12-07T10:33:33;18.64;53.21
75130;HTU21D;63703;44.716;37.846;2022-12-07T10:35:59;17.80;55.02
75130;HTU21D;63703;44.716;37.846;2022-12-07T10:38:28;17.05;56.16
75130;HTU21D;63703;44.716;37.846;2022-12-07T10:41:06;16.45;56.96
75130;HTU21D;63703;44.716;37.846;2022-12-07T10:43:33;15.96;57.95
75130;HTU21D;63703;44.716;37.846;2022-12-07T10:51:30;14.86;61.12
75130;HTU21D;63703;44.716;37.846;2022-12-07T11:01:50;14.30;63.00
75130;HTU21D;63703;44.716;37.846;2022-12-07T11:07:10;14.13;63.53
75130;HTU21D;63703;44.716;37.846;2022-12-07T11:09:52;14.12;63.85
75130;HTU21D;63703;44.716;37.846;2022-12-07T11:16:01;14.57;63.40
75130;HTU21D;63703;44.716;37.846;2022-12-07T11:18:24;14.65;63.34
75130;HTU21D;63703;44.716;37.846;2022-12-07T11:21:09;14.89;63.19
75130;HTU21D;63703;44.716;37.846;2022-12-07T11:24:02;14.82;63.00
75130;HTU21D;63703;44.716;37.846;2022-12-07T11:37:18;15.10;63.24
75130;HTU21D;63703;44.716;37.846;2022-12-07T11:39:55;15.25;63.08
75130;HTU21D;63703;44.716;37.846;2022-12-07T11:42:37;15.41;62.24
75130;HTU21D;63703;44.716;37.846;2022-12-07T11:45:17;15.46;62.07
75130;HTU21D;63703;44.716;37.846;2022-12-07T11:47:55;15.46;61.94
75130;HTU21D;63703;44.716;37.846;2022-12-07T11:53:18;15.61;62.02
75130;HTU21D;63703;44.716;37.846;2022-12-07T11:55:56;15.78;61.39
75130;HTU21D;63703;44.716;37.846;2022-12-07T12:04:02;17.22;57.93
75130;HTU21D;63703;44.716;37.846;2022-12-07T12:06:31;18.82;54.71
75130;HTU21D;63703;44.716;37.846;2022-12-07T12:09:19;20.27;51.72
75130;HTU21D;63703;44.716;37.846;2022-12-07T12:14:43;23.12;46.73
75130;HTU21D;63703;44.716;37.846;2022-12-07T12:20:01;23.29;44.96
75130;HTU21D;63703;44.716;37.846;2022-12-07T12:22:37;23.08;45.04
75130;HTU21D;63703;44.716;37.846;2022-12-07T12:25:11;21.82;46.95
75130;HTU21D;63703;44.716;37.846;2022-12-07T12:27:46;20.22;48.67
75130;HTU21D;63703;44.716;37.846;2022-12-07T12:30:37;18.87;51.07
75130;HTU21D;63703;44.716;37.846;2022-12-07T12:33:28;17.84;53.06
75130;HTU21D;63703;44.716;37.846;2022-12-07T12:51:52;14.27;62.60
75130;HTU21D;63703;44.716;37.846;2022-12-07T12:57:03;13.78;64.87
75130;HTU21D;63703;44.716;37.846;2022-12-07T12:59:35;13.50;64.37
75130;HTU21D;63703;44.716;37.846;2022-12-07T13:02:22;13.33;64.95
75130;HTU21D;63703;44.716;37.846;2022-12-07T13:15:52;12.75;68.44
75130;HTU21D;63703;44.716;37.846;2022-12-07T13:20:56;12.47;68.83
75130;HTU21D;63703;44.716;37.846;2022-12-07T13:26:21;12.29;69.41
75130;HTU21D;63703;44.716;37.846;2022-12-07T13:33:59;12.10;69.18
75130;HTU21D;63703;44.716;37.846;2022-12-07T13:36:29;12.04;69.13
75130;HTU21D;63703;44.716;37.846;2022-12-07T13:39:17;12.01;68.93
75130;HTU21D;63703;44.716;37.846;2022-12-07T13:41:43;11.92;68.85
75130;HTU21D;63703;44.716;37.846;2022-12-07T13:44:15;11.87;68.79
75130;HTU21D;63703;44.716;37.846;2022-12-07T13:49:25;11.79;68.68
75130;HTU21D;63703;44.716;37.846;2022-12-07T13:51:53;11.75;68.71
75130;HTU21D;63703;44.716;37.846;2022-12-07T13:54:20;11.71;68.74
75130;HTU21D;63703;44.716;37.846;2022-12-07T13:56:51;11.68;68.79
75130;HTU21D;63703;44.716;37.846;2022-12-07T13:59:23;11.64;68.81
75130;HTU21D;63703;44.716;37.846;2022-12-07T14:01:51;11.61;68.84
75130;HTU21D;63703;44.716;37.846;2022-12-07T14:04:36;11.60;68.92
75130;HTU21D;63703;44.716;37.846;2022-12-07T14:07:23;11.58;68.95
75130;HTU21D;63703;44.716;37.846;2022-12-07T14:10:04;11.54;68.93
75130;HTU21D;63703;44.716;37.846;2022-12-07T14:12:31;11.51;68.96
75130;HTU21D;63703;44.716;37.846;2022-12-07T14:14:59;11.49;69.04
75130;HTU21D;63703;44.716;37.846;2022-12-07T14:17:27;11.47;69.10
75130;HTU21D;63703;44.716;37.846;2022-12-07T14:19:58;11.42;69.21
75130;HTU21D;63703;44.716;37.846;2022-12-07T14:22:33;11.39;69.25
75130;HTU21D;63703;44.716;37.846;2022-12-07T14:25:23;11.31;69.49
75130;HTU21D;63703;44.716;37.846;2022-12-07T14:27:52;11.25;69.45
75130;HTU21D;63703;44.716;37.846;2022-12-07T14:30:21;11.19;69.53
75130;HTU21D;63703;44.716;37.846;2022-12-07T14:32:52;11.14;69.66
75130;HTU21D;63703;44.716;37.846;2022-12-07T14:35:18;11.05;69.75
75130;HTU21D;63703;44.716;37.846;2022-12-07T14:37:47;10.99;69.74
75130;HTU21D;63703;44.716;37.846;2022-12-07T14:40:19;10.93;70.00
75130;HTU21D;63703;44.716;37.846;2022-12-07T14:42:47;10.87;70.07
75130;HTU21D;63703;44.716;37.846;2022-12-07T14:45:19;10.85;70.20
75130;HTU21D;63703;44.716;37.846;2022-12-07T14:47:46;10.82;70.23
75130;HTU21D;63703;44.716;37.846;2022-12-07T14:50:13;10.78;70.27
75130;HTU21D;63703;44.716;37.846;2022-12-07T14:52:40;10.78;70.33
75130;HTU21D;63703;44.716;37.846;2022-12-07T14:57:46;10.73;70.46
75130;HTU21D;63703;44.716;37.846;2022-12-07T15:00:16;10.73;70.60
75130;HTU21D;63703;44.716;37.846;2022-12-07T15:02:44;10.71;70.61
75130;HTU21D;63703;44.716;37.846;2022-12-07T15:05:10;10.69;70.68
75130;HTU21D;63703;44.716;37.846;2022-12-07T15:07:36;10.67;70.74
75130;HTU21D;63703;44.716;37.846;2022-12-07T15:10:02;10.66;70.83
75130;HTU21D;63703;44.716;37.846;2022-12-07T15:12:28;10.65;70.90
75130;HTU21D;63703;44.716;37.846;2022-12-07T15:14:54;10.63;70.95
75130;HTU21D;63703;44.716;37.846;2022-12-07T15:17:20;10.62;71.02
75130;HTU21D;63703;44.716;37.846;2022-12-07T15:19:46;10.63;71.08
75130;HTU21D;63703;44.716;37.846;2022-12-07T15:22:12;10.60;71.15
75130;HTU21D;63703;44.716;37.846;2022-12-07T15:24:38;10.59;71.20
75130;HTU21D;63703;44.716;37.846;2022-12-07T15:27:04;10.59;71.26
75130;HTU21D;63703;44.716;37.846;2022-12-07T15:29:30;10.59;71.31
75130;HTU21D;63703;44.716;37.846;2022-12-07T15:31:56;10.59;71.35
75130;HTU21D;63703;44.716;37.846;2022-12-07T15:34:24;10.59;71.42
75130;HTU21D;63703;44.716;37.846;2022-12-07T15:36:50;10.58;71.45
75130;HTU21D;63703;44.716;37.846;2022-12-07T15:39:16;10.59;71.52
75130;HTU21D;63703;44.716;37.846;2022-12-07T15:41:42;10.59;71.56
75130;HTU21D;63703;44.716;37.846;2022-12-07T15:44:11;10.59;71.67
75130;HTU21D;63703;44.716;37.846;2022-12-07T15:46:56;10.58;71.67
75130;HTU21D;63703;44.716;37.846;2022-12-07T15:49:22;10.58;71.72
75130;HTU21D;63703;44.716;37.846;2022-12-07T15:51:48;10.60;71.76
75130;HTU21D;63703;44.716;37.846;2022-12-07T15:54:25;10.60;71.90
75130;HTU21D;63703;44.716;37.846;2022-12-07T15:56:51;10.58;71.80
75130;HTU21D;63703;44.716;37.846;2022-12-07T15:59:17;10.57;71.83
75130;HTU21D;63703;44.716;37.846;2022-12-07T16:01:44;10.56;71.87
75130;HTU21D;63703;44.716;37.846;2022-12-07T16:04:10;10.54;71.90
75130;HTU21D;63703;44.716;37.846;2022-12-07T16:06:36;10.53;71.90
75130;HTU21D;63703;44.716;37.846;2022-12-07T16:09:02;10.53;71.91
75130;HTU21D;63703;44.716;37.846;2022-12-07T16:11:29;10.52;71.93
75130;HTU21D;63703;44.716;37.846;2022-12-07T16:13:55;10.52;71.88
75130;HTU21D;63703;44.716;37.846;2022-12-07T16:16:21;10.51;71.88
75130;HTU21D;63703;44.716;37.846;2022-12-07T16:18:49;10.49;71.90
75130;HTU21D;63703;44.716;37.846;2022-12-07T16:21:16;10.45;71.91
75130;HTU21D;63703;44.716;37.846;2022-12-07T16:23:43;10.44;71.94
75130;HTU21D;63703;44.716;37.846;2022-12-07T16:26:20;10.42;72.00
75130;HTU21D;63703;44.716;37.846;2022-12-07T16:28:52;10.40;71.96
75130;HTU21D;63703;44.716;37.846;2022-12-07T16:31:20;10.37;71.96
75130;HTU21D;63703;44.716;37.846;2022-12-07T16:33:47;10.36;71.94
75130;HTU21D;63703;44.716;37.846;2022-12-07T16:36:15;10.35;71.93
75130;HTU21D;63703;44.716;37.846;2022-12-07T16:38:42;10.31;71.93
75130;HTU21D;63703;44.716;37.846;2022-12-07T16:41:09;10.29;71.92
75130;HTU21D;63703;44.716;37.846;2022-12-07T16:43:36;10.26;71.96
75130;HTU21D;63703;44.716;37.846;2022-12-07T16:46:03;10.24;71.96
75130;HTU21D;63703;44.716;37.846;2022-12-07T16:48:29;10.22;71.97
75130;HTU21D;63703;44.716;37.846;2022-12-07T16:50:55;10.19;71.98
75130;HTU21D;63703;44.716;37.846;2022-12-07T16:53:22;10.16;71.99
75130;HTU21D;63703;44.716;37.846;2022-12-07T16:56:14;10.16;72.01
75130;HTU21D;63703;44.716;37.846;2022-12-07T16:58:42;10.11;71.97
75130;HTU21D;63703;44.716;37.846;2022-12-07T17:01:12;10.08;72.00
75130;HTU21D;63703;44.716;37.846;2022-12-07T17:03:38;10.07;72.00
75130;HTU21D;63703;44.716;37.846;2022-12-07T17:06:12;10.07;71.97
75130;HTU21D;63703;44.716;37.846;2022-12-07T17:08:38;10.07;71.92
75130;HTU21D;63703;44.716;37.846;2022-12-07T17:11:12;10.11;71.89
75130;HTU21D;63703;44.716;37.846;2022-12-07T17:13:39;10.13;71.84
75130;HTU21D;63703;44.716;37.846;2022-12-07T17:16:23;10.14;71.81
75130;HTU21D;63703;44.716;37.846;2022-12-07T17:18:50;10.16;71.81
75130;HTU21D;63703;44.716;37.846;2022-12-07T17:21:16;10.19;71.80
75130;HTU21D;63703;44.716;37.846;2022-12-07T17:23:42;10.23;71.79
75130;HTU21D;63703;44.716;37.846;2022-12-07T17:26:10;10.26;71.80
75130;HTU21D;63703;44.716;37.846;2022-12-07T17:28:37;10.28;71.80
75130;HTU21D;63703;44.716;37.846;2022-12-07T17:31:08;10.30;71.87
75130;HTU21D;63703;44.716;37.846;2022-12-07T17:33:35;10.29;71.84